sensor_id;sensor_type;location;lat;lon;timestamp;P1;durP1;ratioP1;P2;durP2;ratioP2
19004;SDS011;9635;52.078;8.648;2024-02-14T00:00:32;7.25;;;3.67;;
19004;SDS011;9635;52.078;8.648;2024-02-14T00:05:37;5.95;;;3.72;;
19004;SDS011;9635;52.078;8.648;2024-02-14T00:10:42;10.00;;;4.03;;
19004;SDS011;9635;52.078;8.648;2024-02-14T00:15:46;6.50;;;3.65;;
19004;SDS011;9635;52.078;8.648;2024-02-14T00:20:50;6.15;;;3.20;;
19004;SDS011;9635;52.078;8.648;2024-02-14T00:25:53;7.60;;;3.47;;
19004;SDS011;9635;52.078;8.648;2024-02-14T00:30:56;5.50;;;3.10;;
19004;SDS011;9635;52.078;8.648;2024-02-14T00:36:01;5.72;;;3.00;;
19004;SDS011;9635;52.078;8.648;2024-02-14T00:41:04;6.45;;;3.00;;
19004;SDS011;9635;52.078;8.648;2024-02-14T00:46:07;6.45;;;2.85;;
19004;SDS011;9635;52.078;8.648;2024-02-14T00:51:11;7.97;;;2.95;;
19004;SDS011;9635;52.078;8.648;2024-02-14T00:56:14;9.60;;;3.28;;
19004;SDS011;9635;52.078;8.648;2024-02-14T01:01:18;9.90;;;3.42;;
19004;SDS011;9635;52.078;8.648;2024-02-14T01:06:23;5.20;;;3.00;;
19004;SDS011;9635;52.078;8.648;2024-02-14T01:11:26;4.63;;;3.53;;
19004;SDS011;9635;52.078;8.648;2024-02-14T01:16:30;5.90;;;3.00;;
19004;SDS011;9635;52.078;8.648;2024-02-14T01:21:34;4.63;;;3.00;;
19004;SDS011;9635;52.078;8.648;2024-02-14T01:26:37;6.93;;;3.33;;
19004;SDS011;9635;52.078;8.648;2024-02-14T01:31:40;5.75;;;3.08;;
19004;SDS011;9635;52.078;8.648;2024-02-14T01:36:45;4.72;;;2.92;;
19004;SDS011;9635;52.078;8.648;2024-02-14T01:41:49;5.35;;;3.50;;
19004;SDS011;9635;52.078;8.648;2024-02-14T01:46:52;6.22;;;2.95;;
19004;SDS011;9635;52.078;8.648;2024-02-14T01:51:58;8.25;;;2.70;;
19004;SDS011;9635;52.078;8.648;2024-02-14T01:57:04;6.65;;;2.83;;
19004;SDS011;9635;52.078;8.648;2024-02-14T02:02:08;5.68;;;3.45;;
19004;SDS011;9635;52.078;8.648;2024-02-14T02:07:12;7.40;;;4.15;;
19004;SDS011;9635;52.078;8.648;2024-02-14T02:12:15;8.40;;;4.25;;
19004;SDS011;9635;52.078;8.648;2024-02-14T02:17:18;7.85;;;3.78;;
19004;SDS011;9635;52.078;8.648;2024-02-14T02:22:23;7.75;;;4.22;;
19004;SDS011;9635;52.078;8.648;2024-02-14T02:27:28;5.15;;;3.08;;
19004;SDS011;9635;52.078;8.648;2024-02-14T02:32:31;23.98;;;4.82;;
19004;SDS011;9635;52.078;8.648;2024-02-14T02:37:34;8.38;;;4.05;;
19004;SDS011;9635;52.078;8.648;2024-02-14T02:42:39;7.82;;;4.03;;
19004;SDS011;9635;52.078;8.648;2024-02-14T02:47:42;8.75;;;3.92;;
19004;SDS011;9635;52.078;8.648;2024-02-14T02:52:45;10.45;;;3.72;;
19004;SDS011;9635;52.078;8.648;2024-02-14T02:57:49;6.55;;;3.50;;
19004;SDS011;9635;52.078;8.648;2024-02-14T03:02:54;8.23;;;3.45;;
19004;SDS011;9635;52.078;8.648;2024-02-14T03:07:57;5.38;;;3.20;;
19004;SDS011;9635;52.078;8.648;2024-02-14T03:13:01;6.65;;;3.35;;
19004;SDS011;9635;52.078;8.648;2024-02-14T03:18:04;4.70;;;2.90;;
19004;SDS011;9635;52.078;8.648;2024-02-14T03:23:09;4.40;;;3.75;;
19004;SDS011;9635;52.078;8.648;2024-02-14T03:28:14;6.93;;;3.10;;
19004;SDS011;9635;52.078;8.648;2024-02-14T03:33:17;4.75;;;2.78;;
19004;SDS011;9635;52.078;8.648;2024-02-14T03:38:25;4.65;;;3.15;;
19004;SDS011;9635;52.078;8.648;2024-02-14T03:43:30;3.92;;;2.35;;
19004;SDS011;9635;52.078;8.648;2024-02-14T03:48:33;5.63;;;2.72;;
19004;SDS011;9635;52.078;8.648;2024-02-14T03:53:37;5.32;;;2.72;;
19004;SDS011;9635;52.078;8.648;2024-02-14T03:58:42;3.97;;;2.67;;
19004;SDS011;9635;52.078;8.648;2024-02-14T04:03:45;4.75;;;2.83;;
19004;SDS011;9635;52.078;8.648;2024-02-14T04:08:49;3.92;;;2.40;;
19004;SDS011;9635;52.078;8.648;2024-02-14T04:13:54;4.47;;;2.60;;
19004;SDS011;9635;52.078;8.648;2024-02-14T04:18:57;5.30;;;2.92;;
19004;SDS011;9635;52.078;8.648;2024-02-14T04:24:00;8.05;;;3.42;;
19004;SDS011;9635;52.078;8.648;2024-02-14T04:29:04;3.00;;;2.17;;
19004;SDS011;9635;52.078;8.648;2024-02-14T04:34:07;5.18;;;2.53;;
19004;SDS011;9635;52.078;8.648;2024-02-14T04:39:11;4.47;;;3.13;;
19004;SDS011;9635;52.078;8.648;2024-02-14T04:44:16;5.75;;;3.15;;
19004;SDS011;9635;52.078;8.648;2024-02-14T04:49:19;4.70;;;2.97;;
19004;SDS011;9635;52.078;8.648;2024-02-14T04:54:22;4.57;;;3.20;;
19004;SDS011;9635;52.078;8.648;2024-02-14T04:59:27;6.15;;;3.33;;
19004;SDS011;9635;52.078;8.648;2024-02-14T05:04:30;5.07;;;4.20;;
19004;SDS011;9635;52.078;8.648;2024-02-14T05:09:34;4.88;;;2.58;;
19004;SDS011;9635;52.078;8.648;2024-02-14T05:14:39;6.00;;;3.88;;
19004;SDS011;9635;52.078;8.648;2024-02-14T05:19:42;7.40;;;4.18;;
19004;SDS011;9635;52.078;8.648;2024-02-14T05:24:46;6.18;;;3.83;;
19004;SDS011;9635;52.078;8.648;2024-02-14T05:29:50;5.53;;;4.07;;
19004;SDS011;9635;52.078;8.648;2024-02-14T05:34:53;9.63;;;4.63;;
19004;SDS011;9635;52.078;8.648;2024-02-14T05:39:56;10.25;;;5.30;;
19004;SDS011;9635;52.078;8.648;2024-02-14T05:45:00;9.60;;;5.43;;
19004;SDS011;9635;52.078;8.648;2024-02-14T05:50:05;10.02;;;5.90;;
19004;SDS011;9635;52.078;8.648;2024-02-14T05:55:10;7.18;;;4.78;;
19004;SDS011;9635;52.078;8.648;2024-02-14T06:00:15;7.55;;;5.15;;
19004;SDS011;9635;52.078;8.648;2024-02-14T06:05:20;6.53;;;4.10;;
19004;SDS011;9635;52.078;8.648;2024-02-14T06:10:23;7.95;;;4.95;;
19004;SDS011;9635;52.078;8.648;2024-02-14T06:15:28;8.32;;;5.15;;
19004;SDS011;9635;52.078;8.648;2024-02-14T06:20:31;11.60;;;6.40;;
19004;SDS011;9635;52.078;8.648;2024-02-14T06:25:35;9.95;;;6.50;;
19004;SDS011;9635;52.078;8.648;2024-02-14T06:30:39;11.88;;;7.47;;
19004;SDS011;9635;52.078;8.648;2024-02-14T06:35:42;9.35;;;6.55;;
19004;SDS011;9635;52.078;8.648;2024-02-14T06:40:45;8.10;;;6.88;;
19004;SDS011;9635;52.078;8.648;2024-02-14T06:45:50;11.48;;;6.57;;
19004;SDS011;9635;52.078;8.648;2024-02-14T06:50:53;11.35;;;8.10;;
19004;SDS011;9635;52.078;8.648;2024-02-14T06:55:56;11.25;;;8.10;;
19004;SDS011;9635;52.078;8.648;2024-02-14T07:01:00;11.18;;;7.88;;
19004;SDS011;9635;52.078;8.648;2024-02-14T07:06:04;9.68;;;6.47;;
19004;SDS011;9635;52.078;8.648;2024-02-14T07:11:08;10.50;;;7.57;;
19004;SDS011;9635;52.078;8.648;2024-02-14T07:16:12;16.10;;;10.80;;
19004;SDS011;9635;52.078;8.648;2024-02-14T07:21:15;15.93;;;10.57;;
19004;SDS011;9635;52.078;8.648;2024-02-14T07:26:18;17.90;;;10.60;;
19004;SDS011;9635;52.078;8.648;2024-02-14T07:31:23;18.52;;;12.68;;
19004;SDS011;9635;52.078;8.648;2024-02-14T07:36:26;15.95;;;10.45;;
19004;SDS011;9635;52.078;8.648;2024-02-14T07:41:29;24.98;;;15.90;;
19004;SDS011;9635;52.078;8.648;2024-02-14T07:46:34;21.60;;;14.38;;
19004;SDS011;9635;52.078;8.648;2024-02-14T07:51:37;26.90;;;13.38;;
19004;SDS011;9635;52.078;8.648;2024-02-14T07:56:40;22.45;;;15.70;;
19004;SDS011;9635;52.078;8.648;2024-02-14T08:01:44;18.05;;;9.57;;
19004;SDS011;9635;52.078;8.648;2024-02-14T08:06:47;9.75;;;6.07;;
19004;SDS011;9635;52.078;8.648;2024-02-14T08:11:51;17.35;;;11.73;;
19004;SDS011;9635;52.078;8.648;2024-02-14T08:16:56;20.58;;;13.73;;
19004;SDS011;9635;52.078;8.648;2024-02-14T08:22:00;19.35;;;12.02;;
19004;SDS011;9635;52.078;8.648;2024-02-14T08:27:04;22.92;;;14.82;;
19004;SDS011;9635;52.078;8.648;2024-02-14T08:32:09;20.35;;;13.85;;
19004;SDS011;9635;52.078;8.648;2024-02-14T08:37:12;16.60;;;10.52;;
19004;SDS011;9635;52.078;8.648;2024-02-14T08:42:16;18.00;;;14.40;;
19004;SDS011;9635;52.078;8.648;2024-02-14T08:47:20;14.77;;;11.60;;
19004;SDS011;9635;52.078;8.648;2024-02-14T08:52:23;19.38;;;13.60;;
19004;SDS011;9635;52.078;8.648;2024-02-14T08:57:27;15.70;;;9.93;;
19004;SDS011;9635;52.078;8.648;2024-02-14T09:02:31;15.73;;;10.48;;
19004;SDS011;9635;52.078;8.648;2024-02-14T09:07:36;17.48;;;11.52;;
19004;SDS011;9635;52.078;8.648;2024-02-14T09:12:39;18.92;;;13.68;;
19004;SDS011;9635;52.078;8.648;2024-02-14T09:17:44;17.48;;;13.52;;
19004;SDS011;9635;52.078;8.648;2024-02-14T09:22:48;12.18;;;9.88;;
19004;SDS011;9635;52.078;8.648;2024-02-14T09:27:51;14.98;;;11.02;;
19004;SDS011;9635;52.078;8.648;2024-02-14T09:32:55;15.13;;;9.68;;
19004;SDS011;9635;52.078;8.648;2024-02-14T09:38:00;18.95;;;12.30;;
19004;SDS011;9635;52.078;8.648;2024-02-14T09:43:05;16.77;;;10.95;;
19004;SDS011;9635;52.078;8.648;2024-02-14T09:48:16;18.17;;;12.50;;
19004;SDS011;9635;52.078;8.648;2024-02-14T09:53:21;18.88;;;12.25;;
19004;SDS011;9635;52.078;8.648;2024-02-14T09:58:25;14.45;;;11.43;;
19004;SDS011;9635;52.078;8.648;2024-02-14T10:03:31;19.70;;;12.27;;
19004;SDS011;9635;52.078;8.648;2024-02-14T10:08:34;14.90;;;10.57;;
19004;SDS011;9635;52.078;8.648;2024-02-14T10:13:45;19.45;;;13.55;;
19004;SDS011;9635;52.078;8.648;2024-02-14T10:18:50;16.20;;;10.75;;
19004;SDS011;9635;52.078;8.648;2024-02-14T10:23:59;20.58;;;12.43;;
19004;SDS011;9635;52.078;8.648;2024-02-14T10:29:02;22.23;;;13.60;;
19004;SDS011;9635;52.078;8.648;2024-02-14T10:34:07;23.63;;;15.30;;
19004;SDS011;9635;52.078;8.648;2024-02-14T10:39:11;26.60;;;16.77;;
19004;SDS011;9635;52.078;8.648;2024-02-14T10:44:17;26.25;;;16.20;;
19004;SDS011;9635;52.078;8.648;2024-02-14T10:49:21;23.17;;;14.18;;
19004;SDS011;9635;52.078;8.648;2024-02-14T10:54:30;26.90;;;16.35;;
19004;SDS011;9635;52.078;8.648;2024-02-14T10:59:33;21.27;;;14.55;;
19004;SDS011;9635;52.078;8.648;2024-02-14T11:04:41;22.60;;;15.82;;
19004;SDS011;9635;52.078;8.648;2024-02-14T11:09:45;20.52;;;14.25;;
19004;SDS011;9635;52.078;8.648;2024-02-14T11:14:50;14.88;;;8.85;;
19004;SDS011;9635;52.078;8.648;2024-02-14T11:19:57;15.07;;;10.27;;
19004;SDS011;9635;52.078;8.648;2024-02-14T11:25:05;16.35;;;10.68;;
19004;SDS011;9635;52.078;8.648;2024-02-14T11:30:09;18.25;;;13.55;;
19004;SDS011;9635;52.078;8.648;2024-02-14T11:35:15;17.88;;;13.13;;
19004;SDS011;9635;52.078;8.648;2024-02-14T11:40:21;17.33;;;11.57;;
19004;SDS011;9635;52.078;8.648;2024-02-14T11:45:24;12.27;;;8.75;;
19004;SDS011;9635;52.078;8.648;2024-02-14T11:50:29;19.63;;;13.35;;
19004;SDS011;9635;52.078;8.648;2024-02-14T11:55:33;15.85;;;10.10;;
19004;SDS011;9635;52.078;8.648;2024-02-14T12:00:38;11.30;;;8.52;;
19004;SDS011;9635;52.078;8.648;2024-02-14T12:05:45;12.98;;;11.52;;
19004;SDS011;9635;52.078;8.648;2024-02-14T12:10:50;15.45;;;9.57;;
19004;SDS011;9635;52.078;8.648;2024-02-14T12:15:53;11.23;;;10.10;;
19004;SDS011;9635;52.078;8.648;2024-02-14T12:21:04;13.18;;;9.35;;
19004;SDS011;9635;52.078;8.648;2024-02-14T12:26:11;14.35;;;10.00;;
19004;SDS011;9635;52.078;8.648;2024-02-14T12:31:23;7.68;;;6.50;;
19004;SDS011;9635;52.078;8.648;2024-02-14T12:36:27;9.35;;;7.72;;
19004;SDS011;9635;52.078;8.648;2024-02-14T12:41:31;10.90;;;8.95;;
19004;SDS011;9635;52.078;8.648;2024-02-14T12:46:37;4.97;;;4.40;;
19004;SDS011;9635;52.078;8.648;2024-02-14T12:51:41;7.38;;;6.28;;
19004;SDS011;9635;52.078;8.648;2024-02-14T12:56:44;9.45;;;6.20;;
19004;SDS011;9635;52.078;8.648;2024-02-14T13:01:47;10.32;;;7.95;;
19004;SDS011;9635;52.078;8.648;2024-02-14T13:06:52;11.18;;;8.07;;
19004;SDS011;9635;52.078;8.648;2024-02-14T13:11:55;8.48;;;6.68;;
19004;SDS011;9635;52.078;8.648;2024-02-14T13:16:58;10.82;;;9.73;;
19004;SDS011;9635;52.078;8.648;2024-02-14T13:22:03;12.75;;;10.30;;
19004;SDS011;9635;52.078;8.648;2024-02-14T13:27:06;16.63;;;11.20;;
19004;SDS011;9635;52.078;8.648;2024-02-14T13:32:09;14.88;;;11.73;;
19004;SDS011;9635;52.078;8.648;2024-02-14T13:37:13;14.85;;;11.98;;
19004;SDS011;9635;52.078;8.648;2024-02-14T13:42:17;13.48;;;9.43;;
19004;SDS011;9635;52.078;8.648;2024-02-14T13:47:20;15.80;;;12.65;;
19004;SDS011;9635;52.078;8.648;2024-02-14T13:52:25;17.92;;;11.98;;
19004;SDS011;9635;52.078;8.648;2024-02-14T13:57:28;16.02;;;11.73;;
19004;SDS011;9635;52.078;8.648;2024-02-14T14:02:32;18.13;;;12.38;;
19004;SDS011;9635;52.078;8.648;2024-02-14T14:07:37;17.30;;;9.05;;
19004;SDS011;9635;52.078;8.648;2024-02-14T14:12:58;14.13;;;7.90;;
19004;SDS011;9635;52.078;8.648;2024-02-14T14:18:01;12.02;;;8.85;;
19004;SDS011;9635;52.078;8.648;2024-02-14T14:23:05;10.20;;;9.15;;
19004;SDS011;9635;52.078;8.648;2024-02-14T14:28:10;10.60;;;8.68;;
19004;SDS011;9635;52.078;8.648;2024-02-14T14:33:13;15.05;;;9.93;;
19004;SDS011;9635;52.078;8.648;2024-02-14T14:38:21;10.65;;;8.77;;
19004;SDS011;9635;52.078;8.648;2024-02-14T14:43:24;14.15;;;9.35;;
19004;SDS011;9635;52.078;8.648;2024-02-14T14:48:27;10.98;;;7.97;;
19004;SDS011;9635;52.078;8.648;2024-02-14T14:53:32;16.17;;;10.77;;
19004;SDS011;9635;52.078;8.648;2024-02-14T14:58:36;12.55;;;8.85;;
19004;SDS011;9635;52.078;8.648;2024-02-14T15:03:41;10.40;;;8.20;;
19004;SDS011;9635;52.078;8.648;2024-02-14T15:08:45;7.05;;;5.70;;
19004;SDS011;9635;52.078;8.648;2024-02-14T15:13:49;8.85;;;6.90;;
19004;SDS011;9635;52.078;8.648;2024-02-14T15:18:52;7.40;;;6.60;;
19004;SDS011;9635;52.078;8.648;2024-02-14T15:23:57;10.70;;;8.25;;
19004;SDS011;9635;52.078;8.648;2024-02-14T15:29:00;10.00;;;7.18;;
19004;SDS011;9635;52.078;8.648;2024-02-14T15:34:17;10.35;;;8.02;;
19004;SDS011;9635;52.078;8.648;2024-02-14T15:39:22;11.77;;;7.90;;
19004;SDS011;9635;52.078;8.648;2024-02-14T15:44:25;9.27;;;6.78;;
19004;SDS011;9635;52.078;8.648;2024-02-14T15:49:28;7.28;;;6.57;;
19004;SDS011;9635;52.078;8.648;2024-02-14T15:54:33;8.15;;;6.00;;
19004;SDS011;9635;52.078;8.648;2024-02-14T15:59:36;6.88;;;5.85;;
19004;SDS011;9635;52.078;8.648;2024-02-14T16:04:39;9.25;;;5.95;;
19004;SDS011;9635;52.078;8.648;2024-02-14T16:09:44;8.57;;;5.55;;
19004;SDS011;9635;52.078;8.648;2024-02-14T16:14:48;5.38;;;4.88;;
19004;SDS011;9635;52.078;8.648;2024-02-14T16:19:51;10.80;;;4.93;;
19004;SDS011;9635;52.078;8.648;2024-02-14T16:24:55;5.38;;;4.82;;
19004;SDS011;9635;52.078;8.648;2024-02-14T16:29:58;4.70;;;4.20;;
19004;SDS011;9635;52.078;8.648;2024-02-14T16:35:02;4.40;;;3.55;;
19004;SDS011;9635;52.078;8.648;2024-02-14T16:40:08;5.75;;;4.20;;
19004;SDS011;9635;52.078;8.648;2024-02-14T16:45:12;5.75;;;4.93;;
19004;SDS011;9635;52.078;8.648;2024-02-14T16:50:19;6.45;;;5.47;;
19004;SDS011;9635;52.078;8.648;2024-02-14T16:55:25;11.90;;;6.68;;
19004;SDS011;9635;52.078;8.648;2024-02-14T17:00:28;9.63;;;8.25;;
19004;SDS011;9635;52.078;8.648;2024-02-14T17:05:32;9.60;;;5.45;;
19004;SDS011;9635;52.078;8.648;2024-02-14T17:10:38;5.57;;;4.90;;
19004;SDS011;9635;52.078;8.648;2024-02-14T17:15:41;6.35;;;4.40;;
19004;SDS011;9635;52.078;8.648;2024-02-14T17:20:44;5.70;;;4.78;;
19004;SDS011;9635;52.078;8.648;2024-02-14T17:25:49;6.47;;;4.28;;
19004;SDS011;9635;52.078;8.648;2024-02-14T17:30:52;6.55;;;5.55;;
19004;SDS011;9635;52.078;8.648;2024-02-14T17:35:55;8.80;;;5.95;;
19004;SDS011;9635;52.078;8.648;2024-02-14T17:40:59;6.72;;;4.85;;
19004;SDS011;9635;52.078;8.648;2024-02-14T17:46:03;5.05;;;3.83;;
19004;SDS011;9635;52.078;8.648;2024-02-14T17:51:06;6.63;;;4.32;;
19004;SDS011;9635;52.078;8.648;2024-02-14T17:56:11;5.95;;;4.97;;
19004;SDS011;9635;52.078;8.648;2024-02-14T18:01:14;6.40;;;5.07;;
19004;SDS011;9635;52.078;8.648;2024-02-14T18:06:18;5.93;;;4.97;;
19004;SDS011;9635;52.078;8.648;2024-02-14T18:11:22;8.27;;;5.63;;
19004;SDS011;9635;52.078;8.648;2024-02-14T18:16:26;6.22;;;5.63;;
19004;SDS011;9635;52.078;8.648;2024-02-14T18:21:29;7.07;;;5.78;;
19004;SDS011;9635;52.078;8.648;2024-02-14T18:26:33;8.07;;;6.47;;
19004;SDS011;9635;52.078;8.648;2024-02-14T18:31:36;8.27;;;7.13;;
19004;SDS011;9635;52.078;8.648;2024-02-14T18:36:39;10.45;;;8.30;;
19004;SDS011;9635;52.078;8.648;2024-02-14T18:41:43;8.57;;;7.65;;
19004;SDS011;9635;52.078;8.648;2024-02-14T18:46:46;9.60;;;8.52;;
19004;SDS011;9635;52.078;8.648;2024-02-14T18:51:49;11.45;;;9.10;;
19004;SDS011;9635;52.078;8.648;2024-02-14T18:56:54;14.50;;;10.38;;
19004;SDS011;9635;52.078;8.648;2024-02-14T19:01:57;15.60;;;12.43;;
19004;SDS011;9635;52.078;8.648;2024-02-14T19:06:59;14.55;;;12.25;;
19004;SDS011;9635;52.078;8.648;2024-02-14T19:12:04;13.50;;;11.30;;
19004;SDS011;9635;52.078;8.648;2024-02-14T19:17:09;11.13;;;9.80;;
19004;SDS011;9635;52.078;8.648;2024-02-14T19:22:12;11.90;;;10.63;;
19004;SDS011;9635;52.078;8.648;2024-02-14T19:27:16;11.52;;;10.10;;
19004;SDS011;9635;52.078;8.648;2024-02-14T19:32:19;11.05;;;9.82;;
19004;SDS011;9635;52.078;8.648;2024-02-14T19:37:22;12.27;;;10.27;;
19004;SDS011;9635;52.078;8.648;2024-02-14T19:42:26;13.70;;;9.90;;
19004;SDS011;9635;52.078;8.648;2024-02-14T19:47:30;8.88;;;7.70;;
19004;SDS011;9635;52.078;8.648;2024-02-14T19:52:34;11.05;;;7.65;;
19004;SDS011;9635;52.078;8.648;2024-02-14T19:57:39;7.72;;;6.07;;
19004;SDS011;9635;52.078;8.648;2024-02-14T20:02:42;8.30;;;7.00;;
19004;SDS011;9635;52.078;8.648;2024-02-14T20:07:45;7.45;;;6.57;;
19004;SDS011;9635;52.078;8.648;2024-02-14T20:12:50;8.65;;;7.75;;
19004;SDS011;9635;52.078;8.648;2024-02-14T20:17:53;9.32;;;7.30;;
19004;SDS011;9635;52.078;8.648;2024-02-14T20:22:56;9.75;;;7.45;;
19004;SDS011;9635;52.078;8.648;2024-02-14T20:28:00;14.85;;;12.05;;
19004;SDS011;9635;52.078;8.648;2024-02-14T20:33:03;18.63;;;12.63;;
19004;SDS011;9635;52.078;8.648;2024-02-14T20:38:07;18.25;;;14.10;;
19004;SDS011;9635;52.078;8.648;2024-02-14T20:43:13;16.08;;;11.15;;
19004;SDS011;9635;52.078;8.648;2024-02-14T20:48:16;20.98;;;15.18;;
19004;SDS011;9635;52.078;8.648;2024-02-14T20:53:19;15.38;;;10.32;;
19004;SDS011;9635;52.078;8.648;2024-02-14T20:58:24;22.70;;;15.10;;
19004;SDS011;9635;52.078;8.648;2024-02-14T21:03:27;28.77;;;17.85;;
19004;SDS011;9635;52.078;8.648;2024-02-14T21:08:30;31.75;;;19.73;;
19004;SDS011;9635;52.078;8.648;2024-02-14T21:13:35;31.88;;;19.15;;
19004;SDS011;9635;52.078;8.648;2024-02-14T21:18:38;29.63;;;18.80;;
19004;SDS011;9635;52.078;8.648;2024-02-14T21:23:41;32.97;;;20.42;;
19004;SDS011;9635;52.078;8.648;2024-02-14T21:28:45;24.85;;;14.73;;
19004;SDS011;9635;52.078;8.648;2024-02-14T21:33:48;36.75;;;23.05;;
19004;SDS011;9635;52.078;8.648;2024-02-14T21:38:53;25.83;;;16.67;;
19004;SDS011;9635;52.078;8.648;2024-02-14T21:43:59;40.22;;;26.10;;
19004;SDS011;9635;52.078;8.648;2024-02-14T21:49:02;35.70;;;22.33;;
19004;SDS011;9635;52.078;8.648;2024-02-14T21:54:08;37.58;;;23.90;;
19004;SDS011;9635;52.078;8.648;2024-02-14T21:59:13;27.65;;;15.55;;
19004;SDS011;9635;52.078;8.648;2024-02-14T22:04:16;41.97;;;26.55;;
19004;SDS011;9635;52.078;8.648;2024-02-14T22:09:20;35.65;;;22.10;;
19004;SDS011;9635;52.078;8.648;2024-02-14T22:14:25;31.25;;;18.08;;
19004;SDS011;9635;52.078;8.648;2024-02-14T22:19:29;30.67;;;18.35;;
19004;SDS011;9635;52.078;8.648;2024-02-14T22:24:35;29.58;;;19.13;;
19004;SDS011;9635;52.078;8.648;2024-02-14T22:29:39;30.88;;;20.98;;
19004;SDS011;9635;52.078;8.648;2024-02-14T22:34:42;31.35;;;18.33;;
19004;SDS011;9635;52.078;8.648;2024-02-14T22:39:46;26.77;;;16.10;;
19004;SDS011;9635;52.078;8.648;2024-02-14T22:44:51;25.67;;;16.58;;
19004;SDS011;9635;52.078;8.648;2024-02-14T22:49:54;30.02;;;19.90;;
19004;SDS011;9635;52.078;8.648;2024-02-14T22:54:57;27.75;;;18.88;;
19004;SDS011;9635;52.078;8.648;2024-02-14T23:00:01;29.75;;;18.83;;
19004;SDS011;9635;52.078;8.648;2024-02-14T23:05:07;31.52;;;20.67;;
19004;SDS011;9635;52.078;8.648;2024-02-14T23:10:13;23.92;;;15.05;;
19004;SDS011;9635;52.078;8.648;2024-02-14T23:15:18;32.97;;;21.60;;
19004;SDS011;9635;52.078;8.648;2024-02-14T23:20:21;33.40;;;21.23;;
19004;SDS011;9635;52.078;8.648;2024-02-14T23:25:24;34.22;;;22.80;;
19004;SDS011;9635;52.078;8.648;2024-02-14T23:30:29;31.58;;;21.02;;
19004;SDS011;9635;52.078;8.648;2024-02-14T23:35:32;36.28;;;23.05;;
19004;SDS011;9635;52.078;8.648;2024-02-14T23:40:35;30.40;;;18.13;;
19004;SDS011;9635;52.078;8.648;2024-02-14T23:45:39;31.25;;;20.70;;
19004;SDS011;9635;52.078;8.648;2024-02-14T23:50:42;34.10;;;19.10;;
19004;SDS011;9635;52.078;8.648;2024-02-14T23:55:45;26.98;;;18.70;;
